Polzeath, United Kingdom
Current Conditions -  °F | °C
As of 6:20 PM on Tuesday 21 Oct 2014 (Local Time) from EGHQ Reporting Station
Few Clouds Few Clouds  
Wind Chill: 54°   Ceiling: Unl
Heat Index: 54°   Visibility: 6mi
Dew Point: 39°   Wind: 32mph
Humidity: 58%   Direction: 320°NW
Pressure: 30.18"   Gusts: 45mph
Location:  50.57°N, 4.92°W
Report Text: EGHQ 211720Z 32028G39KT 9999 FEW034 12/04 Q1022
Loading
Personal Weather Stations






























Interactive Weather Map
Tropical Storm Tracking
New forecast layout! Learn more

10-Day Weather Forecast

Advertisements
Track Severe Weather on mobile